Time;durP1;ratioP1;P1;durP2;ratioP2;P2;SDS_P1;SDS_P2;PMS_P1;PMS_P2;Temp;Humidity;BMP_temperature;BMP_pressure;BME280_temperature;BME280_humidity;BME280_pressure;Samples;Min_cycle;Max_cycle;Signal;HPM_P1;HPM_P2
2023/08/05 00:01:07;;;;;;;8.00;5.45;;;14.90;99.90;;;;;;5107906;27;20039;-58
2023/08/05 00:03:32;;;;;;;9.43;5.35;;;14.90;99.90;;;;;;5111986;27;20614;-58
2023/08/05 00:05:58;;;;;;;6.43;4.25;;;14.90;99.90;;;;;;5099965;27;20039;-58
2023/08/05 00:08:24;;;;;;;8.63;4.50;;;14.90;99.90;;;;;;5112931;27;20039;-59
2023/08/05 00:10:50;;;;;;;6.85;4.93;;;14.80;99.90;;;;;;5121025;27;20035;-58
2023/08/05 00:13:16;;;;;;;11.02;5.45;;;14.80;99.90;;;;;;5098610;27;20039;-58
2023/08/05 00:15:42;;;;;;;6.40;4.53;;;14.80;99.90;;;;;;5104653;27;20039;-59
2023/08/05 00:18:08;;;;;;;6.95;4.25;;;14.80;99.90;;;;;;5094874;27;20105;-58
2023/08/05 00:20:34;;;;;;;7.63;4.53;;;14.70;99.90;;;;;;5114151;27;20114;-58
2023/08/05 00:23:00;;;;;;;8.75;4.57;;;14.70;99.90;;;;;;5093836;28;20125;-58
2023/08/05 00:25:26;;;;;;;6.85;4.53;;;14.60;99.90;;;;;;5115749;27;20549;-59
2023/08/05 00:27:51;;;;;;;10.55;5.85;;;14.50;99.90;;;;;;5085002;28;20521;-59
2023/08/05 00:30:17;;;;;;;8.18;5.55;;;14.50;99.90;;;;;;5097566;27;20111;-58
2023/08/05 00:32:43;;;;;;;8.98;5.40;;;14.40;99.90;;;;;;5095055;27;20048;-59
2023/08/05 00:35:09;;;;;;;6.88;4.93;;;14.30;99.90;;;;;;5112458;27;20039;-59
2023/08/05 00:37:35;;;;;;;8.48;5.80;;;14.30;99.90;;;;;;5112053;27;21526;-57
2023/08/05 00:40:01;;;;;;;8.65;4.97;;;14.20;99.90;;;;;;5088867;28;20576;-59
2023/08/05 00:42:27;;;;;;;8.90;4.63;;;14.20;99.90;;;;;;5063139;28;20031;-59
2023/08/05 00:44:53;;;;;;;6.45;4.55;;;14.20;99.90;;;;;;5109738;28;20036;-59
2023/08/05 00:47:19;;;;;;;8.88;4.93;;;14.20;99.90;;;;;;5111183;28;20507;-58
2023/08/05 00:49:51;;;;;;;10.27;4.88;;;14.20;99.90;;;;;;5093065;28;20130;-57
2023/08/05 00:52:18;;;;;;;7.57;4.10;;;14.20;99.90;;;;;;5094888;28;20047;-58
2023/08/05 00:54:44;;;;;;;8.13;4.57;;;14.20;99.90;;;;;;5099031;28;20075;-59
2023/08/05 00:57:12;;;;;;;9.70;4.97;;;14.20;99.90;;;;;;5113727;27;20064;-59
2023/08/05 00:59:38;;;;;;;8.98;5.75;;;14.10;99.90;;;;;;5114558;28;20042;-58
2023/08/05 01:02:04;;;;;;;8.20;5.10;;;14.10;99.90;;;;;;5118521;28;20390;-58
2023/08/05 01:04:30;;;;;;;9.27;4.75;;;14.10;99.90;;;;;;5116176;28;20406;-59
2023/08/05 01:06:58;;;;;;;8.25;4.88;;;14.10;99.90;;;;;;5108892;28;20043;-59
2023/08/05 01:09:25;;;;;;;5.95;4.07;;;14.10;99.90;;;;;;5093046;28;20058;-59
2023/08/05 01:11:51;;;;;;;7.35;4.97;;;14.10;99.90;;;;;;5096339;27;20048;-59
2023/08/05 01:14:17;;;;;;;11.55;5.28;;;14.20;99.90;;;;;;5110687;28;20043;-58
2023/08/05 01:16:43;;;;;;;9.57;5.18;;;14.20;99.90;;;;;;5097771;27;20057;-59
2023/08/05 01:19:17;;;;;;;9.50;6.07;;;14.20;99.90;;;;;;5100864;27;20122;-60
2023/08/05 01:22:00;;;;;;;8.93;5.70;;;14.20;99.90;;;;;;5081168;28;20128;-57
2023/08/05 01:24:50;;;;;;;10.20;6.50;;;14.20;99.90;;;;;;5100218;27;20146;-57
2023/08/05 01:27:16;;;;;;;8.43;5.43;;;14.30;99.90;;;;;;5046972;28;20043;-59
2023/08/05 01:29:41;;;;;;;11.35;5.80;;;14.30;99.90;;;;;;5101417;27;20038;-58
2023/08/05 01:32:08;;;;;;;8.98;5.78;;;14.30;99.90;;;;;;5095808;27;20403;-59
2023/08/05 01:34:34;;;;;;;9.20;5.50;;;14.30;99.90;;;;;;5116317;27;20045;-59
2023/08/05 01:37:00;;;;;;;8.98;5.22;;;14.30;99.90;;;;;;5118047;27;20067;-58
2023/08/05 01:39:25;;;;;;;6.88;4.97;;;14.30;99.90;;;;;;5099135;27;20174;-56
2023/08/05 01:41:51;;;;;;;9.82;6.28;;;14.30;99.90;;;;;;5121306;27;20050;-57
2023/08/05 01:44:17;;;;;;;12.95;6.53;;;14.30;99.90;;;;;;5096440;27;20043;-59
2023/08/05 01:46:42;;;;;;;11.50;6.50;;;14.30;99.90;;;;;;5113564;27;20115;-57
2023/08/05 01:49:08;;;;;;;11.07;6.70;;;14.30;99.90;;;;;;5106644;27;20039;-58
2023/08/05 01:51:34;;;;;;;8.35;6.05;;;14.30;99.90;;;;;;5115227;27;20039;-57
2023/08/05 01:53:59;;;;;;;10.15;6.75;;;14.30;99.90;;;;;;5111792;27;20423;-59
2023/08/05 01:56:25;;;;;;;12.73;6.32;;;14.30;99.90;;;;;;5123586;27;20035;-59
2023/08/05 01:58:51;;;;;;;10.88;6.15;;;14.30;99.90;;;;;;5111937;27;20055;-59
2023/08/05 02:01:16;;;;;;;11.35;7.15;;;14.30;99.90;;;;;;5103721;27;21172;-59
2023/08/05 02:03:42;;;;;;;10.82;6.40;;;14.30;99.90;;;;;;5116268;27;20035;-60
2023/08/05 02:06:08;;;;;;;9.88;6.13;;;14.30;99.90;;;;;;5079304;27;20043;-59
2023/08/05 02:08:33;;;;;;;10.40;5.75;;;14.30;99.90;;;;;;5112708;27;20494;-59
2023/08/05 02:10:59;;;;;;;9.73;5.72;;;14.30;99.90;;;;;;5116541;27;20065;-59
2023/08/05 02:13:25;;;;;;;8.60;5.47;;;14.40;99.90;;;;;;5103031;27;20122;-59
2023/08/05 02:15:50;;;;;;;8.73;6.18;;;14.40;99.90;;;;;;5095843;27;21758;-59
2023/08/05 02:18:16;;;;;;;9.35;6.45;;;14.40;99.90;;;;;;5114520;27;20035;-59
2023/08/05 02:20:42;;;;;;;11.25;6.32;;;14.30;99.90;;;;;;5100690;27;20044;-59
2023/08/05 02:23:07;;;;;;;10.43;6.30;;;14.30;99.90;;;;;;5120678;27;20038;-59
2023/08/05 02:25:33;;;;;;;8.52;6.35;;;14.30;99.90;;;;;;5115730;27;20093;-59
2023/08/05 02:27:59;;;;;;;8.18;6.15;;;14.30;99.90;;;;;;5091955;27;20459;-59
2023/08/05 02:30:24;;;;;;;11.40;6.80;;;14.40;99.90;;;;;;5114242;27;20046;-59
2023/08/05 02:32:50;;;;;;;10.52;6.90;;;14.40;99.90;;;;;;5111379;27;20642;-59
2023/08/05 02:35:16;;;;;;;13.48;7.05;;;14.40;99.90;;;;;;5111477;27;20159;-60
2023/08/05 02:37:41;;;;;;;12.20;7.22;;;14.40;99.90;;;;;;5093877;28;20398;-59
2023/08/05 02:40:08;;;;;;;7.97;6.50;;;14.40;99.90;;;;;;5095276;27;20664;-59
2023/08/05 02:42:33;;;;;;;11.60;7.88;;;14.50;99.90;;;;;;5093532;27;20104;-59
2023/08/05 02:45:00;;;;;;;13.70;8.02;;;14.50;99.90;;;;;;5108599;27;20035;-59
2023/08/05 02:47:25;;;;;;;11.52;7.47;;;14.50;99.90;;;;;;5097205;27;20039;-59
2023/08/05 02:49:51;;;;;;;14.55;7.63;;;14.50;99.90;;;;;;5111493;27;20035;-59
2023/08/05 02:52:17;;;;;;;7.35;5.20;;;14.50;99.90;;;;;;5117514;27;20088;-59
2023/08/05 02:54:42;;;;;;;12.20;6.28;;;14.50;99.90;;;;;;5114927;27;20039;-59
2023/08/05 02:57:08;;;;;;;9.88;7.05;;;14.50;99.90;;;;;;5115748;27;20493;-59
2023/08/05 02:59:34;;;;;;;11.55;7.13;;;14.50;99.90;;;;;;5099181;27;20083;-59
2023/08/05 03:01:59;;;;;;;12.00;7.30;;;14.50;99.90;;;;;;5082279;28;20425;-59
2023/08/05 03:04:25;;;;;;;10.80;6.63;;;14.50;99.90;;;;;;5097446;27;20074;-59
2023/08/05 03:06:51;;;;;;;12.88;7.05;;;14.50;99.90;;;;;;5095481;27;20035;-59
2023/08/05 03:09:17;;;;;;;8.85;5.15;;;14.50;99.90;;;;;;5113944;27;20390;-59
2023/08/05 03:11:42;;;;;;;11.95;7.28;;;14.50;99.90;;;;;;5114018;27;20523;-59
2023/08/05 03:14:08;;;;;;;10.80;5.97;;;14.50;99.90;;;;;;5112897;27;20061;-59
2023/08/05 03:16:34;;;;;;;9.75;6.90;;;14.60;99.90;;;;;;5116795;27;20023;-59
2023/08/05 03:18:59;;;;;;;9.07;6.07;;;14.60;99.90;;;;;;5092863;27;20958;-59
2023/08/05 03:21:25;;;;;;;11.20;7.00;;;14.60;99.90;;;;;;5090029;27;20040;-59
2023/08/05 03:23:51;;;;;;;12.77;7.93;;;14.60;99.90;;;;;;5080140;28;20032;-59
2023/08/05 03:26:16;;;;;;;9.85;7.28;;;14.60;99.90;;;;;;5112248;27;20039;-59
2023/08/05 03:28:42;;;;;;;14.70;7.68;;;14.60;99.90;;;;;;5118307;27;20035;-59
2023/08/05 03:31:08;;;;;;;8.40;6.70;;;14.60;99.90;;;;;;5100962;27;20039;-59
2023/08/05 03:33:33;;;;;;;13.20;8.25;;;14.60;99.90;;;;;;5116644;27;20035;-60
2023/08/05 03:35:59;;;;;;;13.40;8.73;;;14.60;99.90;;;;;;5103125;27;20038;-59
2023/08/05 03:38:25;;;;;;;15.85;7.88;;;14.60;99.90;;;;;;5083662;27;20163;-59
2023/08/05 03:40:51;;;;;;;10.73;6.85;;;14.60;99.90;;;;;;5109931;27;20093;-59
2023/08/05 03:43:16;;;;;;;11.52;6.88;;;14.60;99.90;;;;;;5097769;27;20044;-60
2023/08/05 03:45:51;;;;;;;12.27;7.18;;;14.60;99.90;;;;;;5094040;28;20038;-59
2023/08/05 03:48:17;;;;;;;10.05;7.32;;;14.60;99.90;;;;;;5108302;27;20024;-59
2023/08/05 03:50:43;;;;;;;13.73;7.13;;;14.60;99.90;;;;;;5097634;27;20096;-59
2023/08/05 03:53:08;;;;;;;10.13;6.35;;;14.60;99.90;;;;;;5115854;27;20399;-59
2023/08/05 03:55:34;;;;;;;10.20;6.78;;;14.60;99.90;;;;;;5113314;27;20688;-59
2023/08/05 03:58:00;;;;;;;14.40;7.68;;;14.60;99.90;;;;;;5110386;27;20042;-59
2023/08/05 04:00:25;;;;;;;12.10;8.30;;;14.60;99.90;;;;;;5113147;27;20047;-59
2023/08/05 04:02:51;;;;;;;9.63;6.60;;;14.70;99.90;;;;;;5114433;27;20035;-59
2023/08/05 04:05:17;;;;;;;13.93;7.03;;;14.60;99.90;;;;;;5114983;27;20036;-58
2023/08/05 04:07:43;;;;;;;9.20;6.85;;;14.60;99.90;;;;;;5114690;27;20548;-59
2023/08/05 04:10:09;;;;;;;12.35;6.75;;;14.60;99.90;;;;;;5100699;27;20043;-60
2023/08/05 04:12:35;;;;;;;8.05;6.45;;;14.60;99.90;;;;;;5110178;27;20653;-59
2023/08/05 04:15:02;;;;;;;10.93;7.20;;;14.60;99.90;;;;;;5113413;27;20527;-60
2023/08/05 04:17:29;;;;;;;13.32;7.45;;;14.60;99.90;;;;;;5111740;27;20051;-59
2023/08/05 04:19:55;;;;;;;12.75;7.38;;;14.70;99.90;;;;;;5116935;27;20463;-59
2023/08/05 04:22:22;;;;;;;10.35;6.97;;;14.70;99.90;;;;;;5094164;28;20035;-59
2023/08/05 04:24:48;;;;;;;9.60;7.13;;;14.70;99.90;;;;;;5083579;28;20043;-59
2023/08/05 04:27:13;;;;;;;13.18;7.03;;;14.70;99.90;;;;;;5106735;27;20062;-59
2023/08/05 04:29:39;;;;;;;11.75;7.13;;;14.70;99.90;;;;;;5110581;27;20042;-59
2023/08/05 04:32:05;;;;;;;10.43;6.20;;;14.80;99.90;;;;;;5117484;27;20490;-59
2023/08/05 04:34:36;;;;;;;11.90;6.05;;;14.80;99.90;;;;;;5086729;27;20039;-59
2023/08/05 04:37:35;;;;;;;11.70;6.72;;;14.80;99.90;;;;;;5114036;27;20043;-59
2023/08/05 04:40:00;;;;;;;10.10;6.78;;;14.80;99.90;;;;;;5074671;27;20044;-59
2023/08/05 04:42:26;;;;;;;11.00;6.70;;;14.80;99.90;;;;;;5113717;27;20495;-59
2023/08/05 04:44:52;;;;;;;10.23;6.10;;;14.90;99.90;;;;;;5082215;28;20043;-59
2023/08/05 04:47:17;;;;;;;9.32;5.85;;;14.90;99.90;;;;;;5122385;28;20091;-59
2023/08/05 04:49:44;;;;;;;11.30;5.93;;;14.90;99.90;;;;;;5076313;27;20474;-60
2023/08/05 04:52:12;;;;;;;8.82;5.45;;;15.00;99.90;;;;;;5100153;27;20066;-59
2023/08/05 04:54:44;;;;;;;9.25;5.40;;;15.00;99.90;;;;;;5108684;27;20066;-59
2023/08/05 04:57:11;;;;;;;8.03;5.10;;;15.00;99.90;;;;;;5102587;27;20043;-59
2023/08/05 04:59:37;;;;;;;6.70;5.22;;;15.00;99.90;;;;;;5118056;27;20352;-60
2023/08/05 05:02:04;;;;;;;10.10;5.00;;;15.10;99.90;;;;;;5109437;27;20035;-59
2023/08/05 05:04:29;;;;;;;11.00;4.95;;;15.10;99.90;;;;;;5100831;27;20046;-59
2023/08/05 05:06:55;;;;;;;8.00;5.28;;;15.10;99.90;;;;;;5116628;27;20070;-59
2023/08/05 05:09:21;;;;;;;9.18;5.15;;;15.20;99.90;;;;;;5118632;27;20035;-59
2023/08/05 05:11:47;;;;;;;6.90;5.18;;;15.20;99.90;;;;;;5078822;27;20088;-59
2023/08/05 05:14:13;;;;;;;9.95;4.43;;;15.20;99.90;;;;;;5118953;27;20066;-59
2023/08/05 05:16:38;;;;;;;11.65;5.07;;;15.20;99.90;;;;;;5104369;27;20070;-59
2023/08/05 05:19:04;;;;;;;8.82;4.25;;;15.20;99.90;;;;;;5118346;27;20031;-59
2023/08/05 05:21:30;;;;;;;7.60;4.00;;;15.30;99.90;;;;;;5100964;28;20416;-59
2023/08/05 05:23:56;;;;;;;7.07;3.97;;;15.30;99.90;;;;;;5079259;27;20043;-59
2023/08/05 05:26:22;;;;;;;9.88;3.80;;;15.30;99.90;;;;;;5078836;27;20039;-59
2023/08/05 05:28:47;;;;;;;14.98;4.78;;;15.30;99.90;;;;;;5099491;27;20483;-59
2023/08/05 05:31:13;;;;;;;7.07;4.15;;;15.30;99.90;;;;;;5099693;27;20092;-59
2023/08/05 05:33:39;;;;;;;9.65;4.00;;;15.40;99.90;;;;;;5100359;27;20039;-58
2023/08/05 05:36:05;;;;;;;6.95;4.25;;;15.40;99.90;;;;;;5113008;27;20079;-59
2023/08/05 05:38:30;;;;;;;6.45;3.90;;;15.50;99.90;;;;;;5115388;27;20075;-59
2023/08/05 05:40:56;;;;;;;7.05;3.80;;;15.60;99.90;;;;;;5094787;27;20048;-59
2023/08/05 05:43:22;;;;;;;8.20;4.18;;;15.60;99.90;;;;;;5099359;27;20035;-58
2023/08/05 05:45:52;;;;;;;7.93;3.83;;;15.80;99.90;;;;;;5117796;27;20467;-59
2023/08/05 05:48:18;;;;;;;6.63;4.22;;;15.80;99.90;;;;;;5114044;27;20047;-59
2023/08/05 05:50:44;;;;;;;6.35;3.85;;;15.90;99.90;;;;;;5111903;27;20495;-59
2023/08/05 05:53:13;;;;;;;7.30;4.40;;;15.90;99.90;;;;;;5117381;27;20063;-59
2023/08/05 05:55:41;;;;;;;9.10;4.03;;;16.00;99.90;;;;;;5111807;27;20131;-58
2023/08/05 05:58:07;;;;;;;7.13;3.70;;;16.00;99.90;;;;;;5119254;27;20035;-58
2023/08/05 06:00:33;;;;;;;7.60;3.75;;;16.00;99.90;;;;;;5119424;27;20075;-59
2023/08/05 06:03:00;;;;;;;7.22;4.15;;;16.00;99.90;;;;;;5119745;27;20059;-59
2023/08/05 06:05:30;;;;;;;7.00;3.78;;;16.00;99.90;;;;;;5115048;27;20551;-59
2023/08/05 06:07:56;;;;;;;6.25;4.25;;;16.00;99.90;;;;;;5116281;27;20083;-61
2023/08/05 06:10:21;;;;;;;5.43;3.92;;;16.10;99.90;;;;;;5118900;27;20516;-59
2023/08/05 06:12:47;;;;;;;7.55;3.97;;;16.10;99.90;;;;;;5112473;27;20039;-59
2023/08/05 06:15:13;;;;;;;4.65;3.22;;;16.10;99.90;;;;;;5099302;27;20043;-59
2023/08/05 06:17:39;;;;;;;6.43;3.70;;;16.10;99.90;;;;;;5081268;27;20031;-59
2023/08/05 06:20:06;;;;;;;7.75;4.18;;;16.20;99.90;;;;;;5114603;27;20716;-59
2023/08/05 06:22:32;;;;;;;7.95;3.80;;;16.20;99.90;;;;;;5100105;27;20039;-61
2023/08/05 06:24:58;;;;;;;6.03;4.07;;;16.30;99.90;;;;;;5101126;27;20093;-61
2023/08/05 06:27:23;;;;;;;7.13;3.70;;;16.30;99.90;;;;;;5116680;27;20076;-59
2023/08/05 06:29:49;;;;;;;5.43;3.55;;;16.40;99.90;;;;;;5120679;27;20062;-59
2023/08/05 06:32:15;;;;;;;5.93;3.88;;;16.40;99.90;;;;;;5081145;27;20049;-59
2023/08/05 06:34:40;;;;;;;6.75;4.20;;;16.50;99.90;;;;;;5115001;27;20039;-59
2023/08/05 06:37:06;;;;;;;5.45;3.65;;;16.50;99.90;;;;;;5097676;27;20121;-61
2023/08/05 06:39:33;;;;;;;5.57;3.67;;;16.50;99.90;;;;;;5094554;27;20085;-60
2023/08/05 06:41:59;;;;;;;6.63;3.35;;;16.60;99.90;;;;;;5095818;28;20043;-61
2023/08/05 06:44:25;;;;;;;4.78;3.13;;;16.60;99.90;;;;;;5103380;27;20122;-61
2023/08/05 06:46:50;;;;;;;7.68;3.47;;;16.60;99.90;;;;;;5100649;27;20144;-61
2023/08/05 06:49:16;;;;;;;5.00;3.10;;;16.60;99.90;;;;;;5118291;27;20153;-61
2023/08/05 06:51:42;;;;;;;6.25;3.65;;;16.60;99.90;;;;;;5115765;27;20031;-61
2023/08/05 06:54:10;;;;;;;4.65;2.88;;;16.70;99.90;;;;;;5119696;27;20479;-61
2023/08/05 06:56:36;;;;;;;6.75;2.92;;;16.70;99.90;;;;;;5113837;27;20466;-61
2023/08/05 06:59:02;;;;;;;6.65;3.70;;;16.80;99.90;;;;;;5089907;27;20075;-60
2023/08/05 07:01:28;;;;;;;5.53;3.00;;;16.80;99.90;;;;;;5103989;27;20522;-60
2023/08/05 07:03:54;;;;;;;4.45;2.85;;;16.80;99.90;;;;;;5093949;27;20046;-61
2023/08/05 07:06:19;;;;;;;5.25;3.03;;;16.80;99.90;;;;;;5106490;27;20091;-61
2023/08/05 07:08:45;;;;;;;4.03;3.10;;;16.80;99.90;;;;;;5113920;27;20023;-61
2023/08/05 07:11:11;;;;;;;7.78;3.72;;;16.90;99.90;;;;;;5101675;27;20046;-61
2023/08/05 07:13:37;;;;;;;6.60;3.10;;;16.90;99.90;;;;;;5118253;27;20043;-61
2023/08/05 07:16:03;;;;;;;5.38;2.50;;;16.90;99.90;;;;;;5118670;27;20434;-61
2023/08/05 07:18:29;;;;;;;4.13;3.03;;;17.00;99.90;;;;;;5093798;27;20043;-60
2023/08/05 07:20:55;;;;;;;6.63;3.17;;;17.10;99.90;;;;;;5117325;27;20047;-61
2023/08/05 07:23:21;;;;;;;4.63;3.03;;;17.10;99.90;;;;;;5097270;27;20807;-61
2023/08/05 07:25:47;;;;;;;5.03;3.30;;;17.20;99.90;;;;;;5101995;27;20114;-61
2023/08/05 07:28:13;;;;;;;6.35;3.97;;;17.20;99.90;;;;;;5093762;27;20130;-61
2023/08/05 07:30:39;;;;;;;4.57;2.90;;;17.30;99.90;;;;;;5093810;27;20052;-61
2023/08/05 07:33:07;;;;;;;5.00;2.60;;;17.40;99.90;;;;;;5097587;27;20066;-61
2023/08/05 07:35:33;;;;;;;6.15;2.38;;;17.50;99.90;;;;;;5114416;27;20032;-61
2023/08/05 07:38:01;;;;;;;3.55;2.63;;;17.50;99.90;;;;;;5097850;27;20044;-61
2023/08/05 07:40:27;;;;;;;4.90;2.88;;;17.60;99.90;;;;;;5097970;27;20136;-61
2023/08/05 07:42:53;;;;;;;4.85;2.97;;;17.70;99.90;;;;;;5100024;27;20394;-61
2023/08/05 07:45:21;;;;;;;5.15;3.05;;;17.80;99.90;;;;;;5113924;27;20043;-61
2023/08/05 07:47:47;;;;;;;6.32;2.80;;;17.80;99.90;;;;;;5119391;27;20047;-60
2023/08/05 07:50:21;;;;;;;6.18;3.17;;;17.90;99.90;;;;;;5097809;28;20038;-59
2023/08/05 07:52:46;;;;;;;;;;;17.90;99.90;;;;;;5097562;27;20066;-61
2023/08/05 07:55:12;;;;;;;5.63;2.92;;;18.00;99.90;;;;;;5118044;27;19967;-63
2023/08/05 07:57:40;;;;;;;6.43;3.03;;;18.00;99.90;;;;;;5099159;28;20518;-61
2023/08/05 08:00:09;;;;;;;7.00;2.55;;;18.10;99.90;;;;;;5118100;27;20474;-61
2023/08/05 08:02:35;;;;;;;6.50;2.97;;;18.10;99.90;;;;;;5094247;27;20078;-61
2023/08/05 08:05:05;;;;;;;4.85;2.75;;;18.10;99.90;;;;;;5078889;27;20492;-61
2023/08/05 08:07:31;;;;;;;5.18;3.17;;;18.10;99.90;;;;;;5112808;27;20049;-61
2023/08/05 08:09:56;;;;;;;6.32;2.67;;;18.20;99.90;;;;;;5082283;27;20046;-61
2023/08/05 08:12:22;;;;;;;5.28;2.72;;;18.20;99.90;;;;;;5118733;27;20617;-61
2023/08/05 08:14:48;;;;;;;5.70;2.47;;;18.20;99.90;;;;;;5069506;27;20107;-63
2023/08/05 08:17:15;;;;;;;7.60;3.40;;;18.20;99.90;;;;;;5117387;27;20114;-61
2023/08/05 08:19:40;;;;;;;3.10;2.38;;;18.10;99.90;;;;;;5118738;27;20057;-63
2023/08/05 08:22:06;;;;;;;6.05;2.60;;;18.10;99.90;;;;;;5123663;27;20035;-63
2023/08/05 08:24:32;;;;;;;4.38;2.40;;;18.20;99.90;;;;;;5082130;27;20110;-62
2023/08/05 08:26:58;;;;;;;6.90;2.80;;;18.30;99.90;;;;;;5118756;27;20042;-62
2023/08/05 08:29:23;;;;;;;5.00;2.95;;;18.30;99.90;;;;;;5124299;27;20050;-63
2023/08/05 08:31:49;;;;;;;4.38;2.30;;;18.40;99.90;;;;;;5109453;27;20517;-62
2023/08/05 08:34:15;;;;;;;5.72;2.92;;;18.40;99.90;;;;;;5095684;28;20040;-62
2023/08/05 08:36:40;;;;;;;5.43;2.88;;;18.60;99.90;;;;;;5097339;28;20620;-62
2023/08/05 08:39:06;;;;;;;7.03;3.08;;;18.50;99.90;;;;;;5100123;28;20035;-64
2023/08/05 08:41:40;;;;;;;7.45;3.35;;;18.60;99.90;;;;;;5096686;28;20137;-63
2023/08/05 08:44:07;;;;;;;8.60;3.33;;;18.60;99.90;;;;;;5097995;27;20042;-63
2023/08/05 08:46:33;;;;;;;4.80;2.47;;;18.60;99.90;;;;;;5096327;28;20488;-62
2023/08/05 08:48:58;;;;;;;3.20;2.38;;;18.60;99.90;;;;;;5092649;28;20077;-64
2023/08/05 08:51:25;;;;;;;6.72;2.70;;;18.70;99.90;;;;;;5107726;28;20035;-63
2023/08/05 08:53:51;;;;;;;5.05;3.15;;;18.70;99.90;;;;;;5099008;28;20050;-62
2023/08/05 08:56:17;;;;;;;5.60;3.42;;;18.70;99.90;;;;;;5107314;28;20031;-62
2023/08/05 08:58:42;;;;;;;5.43;2.55;;;18.80;99.90;;;;;;5092049;28;20489;-64
2023/08/05 09:01:11;;;;;;;4.43;2.38;;;18.80;99.90;;;;;;5108829;28;20039;-64
2023/08/05 09:03:39;;;;;;;6.82;2.88;;;19.00;99.90;;;;;;5118241;27;20049;-63
2023/08/05 09:06:05;;;;;;;6.78;2.85;;;19.10;99.90;;;;;;5081735;28;20043;-63
2023/08/05 09:08:33;;;;;;;3.85;2.58;;;19.10;99.90;;;;;;5120411;28;20039;-64
2023/08/05 09:11:00;;;;;;;5.32;3.08;;;19.10;99.90;;;;;;5063639;28;20546;-63
2023/08/05 09:13:26;;;;;;;4.63;2.70;;;19.20;99.90;;;;;;5096930;28;20042;-63
2023/08/05 09:15:54;;;;;;;5.88;2.70;;;19.20;99.90;;;;;;5093474;28;20123;-63
2023/08/05 09:18:20;;;;;;;4.78;2.67;;;19.30;99.90;;;;;;5077541;28;20043;-62
2023/08/05 09:20:49;;;;;;;6.07;3.80;;;19.50;99.90;;;;;;5100639;28;20042;-63
2023/08/05 09:23:15;;;;;;;8.02;2.92;;;19.80;99.90;;;;;;5099108;28;20035;-63
2023/08/05 09:25:46;;;;;;;6.18;2.75;;;19.90;99.90;;;;;;5099679;28;20099;-63
2023/08/05 09:28:12;;;;;;;3.83;2.45;;;20.00;99.90;;;;;;5107074;28;20494;-63
2023/08/05 09:30:38;;;;;;;6.18;2.60;;;20.10;99.90;;;;;;5097487;28;20039;-65
2023/08/05 09:33:04;;;;;;;7.07;3.08;;;20.30;99.90;;;;;;5098985;28;20066;-64
2023/08/05 09:35:30;;;;;;;7.30;2.70;;;20.30;99.90;;;;;;5114283;28;20047;-62
2023/08/05 09:37:56;;;;;;;5.50;2.70;;;20.20;99.90;;;;;;5093291;27;20126;-64
2023/08/05 09:40:28;;;;;;;4.88;2.50;;;20.20;99.90;;;;;;5119307;27;20064;-63
2023/08/05 09:42:59;;;;;;;4.47;2.60;;;20.20;99.90;;;;;;5079711;27;20042;-63
2023/08/05 09:45:28;;;;;;;7.70;3.22;;;20.10;99.90;;;;;;5077454;27;20036;-63
2023/08/05 09:48:09;;;;;;;4.57;2.50;;;20.10;99.90;;;;;;5096270;27;20050;-62
2023/08/05 09:50:37;;;;;;;4.63;2.30;;;20.20;99.90;;;;;;5097579;27;20047;-61
2023/08/05 09:53:08;;;;;;;3.67;2.20;;;20.30;99.90;;;;;;5091881;27;20097;-59
2023/08/05 09:55:36;;;;;;;4.57;2.47;;;20.40;99.90;;;;;;5103059;27;20084;-63
2023/08/05 09:58:09;;;;;;;5.57;2.30;;;20.60;99.90;;;;;;5080411;27;20047;-62
2023/08/05 10:00:36;;;;;;;5.78;2.63;;;20.60;99.90;;;;;;5100890;27;20035;-60
2023/08/05 10:03:07;;;;;;;5.97;2.67;;;20.70;99.90;;;;;;5082299;27;20084;-61
2023/08/05 10:05:34;;;;;;;6.20;2.58;;;20.70;99.90;;;;;;5100311;27;20035;-64
2023/08/05 10:08:00;;;;;;;4.70;2.72;;;20.80;99.90;;;;;;5115232;27;20823;-67
2023/08/05 10:10:29;;;;;;;5.45;2.90;;;21.00;99.90;;;;;;5116157;27;20039;-62
2023/08/05 10:13:04;;;;;;;4.28;2.53;;;21.00;99.90;;;;;;5100715;27;20474;-61
2023/08/05 10:15:33;;;;;;;3.67;2.50;;;20.90;99.90;;;;;;5113206;27;20031;-61
2023/08/05 10:17:58;;;;;;;5.72;2.47;;;20.90;99.90;;;;;;5102309;27;20031;-62
2023/08/05 10:20:24;;;;;;;4.63;2.20;;;20.80;99.90;;;;;;5105427;27;20043;-63
2023/08/05 10:23:10;;;;;;;4.38;2.13;;;20.90;99.90;;;;;;5122944;27;20046;-64
2023/08/05 10:25:46;;;;;;;5.18;2.58;;;21.00;99.90;;;;;;5113814;27;20046;-60
2023/08/05 10:28:23;;;;;;;3.30;2.20;;;21.10;99.90;;;;;;5115585;27;20023;-63
2023/08/05 10:30:50;;;;;;;4.57;2.10;;;21.30;99.90;;;;;;5092865;27;20051;-61
2023/08/05 10:33:17;;;;;;;4.18;2.17;;;21.30;99.90;;;;;;5113304;27;20035;-60
2023/08/05 10:35:44;;;;;;;5.50;2.20;;;21.30;99.90;;;;;;5100830;27;20108;-62
2023/08/05 10:38:19;;;;;;;4.53;2.30;;;21.30;99.90;;;;;;5116650;27;20524;-61
2023/08/05 10:40:47;;;;;;;7.90;2.38;;;21.20;99.90;;;;;;5096590;27;20674;-63
2023/08/05 10:43:32;;;;;;;4.68;2.20;;;21.20;99.90;;;;;;5118949;27;20235;-61
2023/08/05 10:46:19;;;;;;;5.03;2.35;;;21.10;99.90;;;;;;5111226;27;20036;-61
2023/08/05 10:48:48;;;;;;;3.25;2.35;;;21.10;99.90;;;;;;5099886;28;20081;-60
2023/08/05 10:51:18;;;;;;;4.32;2.53;;;21.10;99.90;;;;;;5113456;27;20039;-62
2023/08/05 10:53:51;;;;;;;3.28;2.08;;;21.10;99.90;;;;;;5097755;27;20043;-60
2023/08/05 10:56:17;;;;;;;4.72;2.60;;;21.20;99.90;;;;;;5114657;27;20062;-63
2023/08/05 10:58:48;;;;;;;4.93;2.88;;;21.20;99.90;;;;;;5120477;27;20145;-60
2023/08/05 11:01:14;;;;;;;3.45;2.70;;;21.10;99.90;;;;;;5097338;28;20085;-63
2023/08/05 11:03:48;;;;;;;3.72;2.30;;;21.00;99.90;;;;;;5080334;27;20038;-60
2023/08/05 11:06:20;;;;;;;4.40;2.53;;;20.90;99.90;;;;;;5113520;27;20522;-61
2023/08/05 11:08:46;;;;;;;5.35;2.47;;;20.90;99.90;;;;;;5110723;27;20092;-65
2023/08/05 11:11:13;;;;;;;6.10;3.35;;;20.80;99.90;;;;;;5110005;27;20031;-60
2023/08/05 11:13:47;;;;;;;4.97;3.10;;;20.70;99.90;;;;;;5117744;27;20039;-61
2023/08/05 11:16:17;;;;;;;5.43;2.70;;;20.70;99.90;;;;;;5117517;27;20035;-61
2023/08/05 11:18:55;;;;;;;4.18;3.30;;;20.70;99.90;;;;;;5095166;27;20122;-61
2023/08/05 11:21:21;;;;;;;4.68;3.30;;;20.70;99.90;;;;;;5107956;27;20043;-62
2023/08/05 11:23:47;;;;;;;5.38;2.88;;;20.80;99.90;;;;;;5119191;27;20039;-61
2023/08/05 11:26:14;;;;;;;5.20;2.92;;;20.80;99.90;;;;;;5110672;27;20035;-61
2023/08/05 11:28:46;;;;;;;6.35;3.20;;;20.80;99.90;;;;;;5113781;27;20043;-62
2023/08/05 11:31:23;;;;;;;7.10;3.47;;;20.90;99.90;;;;;;5109223;27;20574;-68
2023/08/05 11:33:49;;;;;;;5.00;3.10;;;21.00;99.90;;;;;;5100191;27;20054;-60
2023/08/05 11:36:15;;;;;;;5.60;3.40;;;21.00;99.90;;;;;;5094089;28;20567;-64
2023/08/05 11:38:42;;;;;;;6.28;3.10;;;21.00;99.90;;;;;;5105378;27;20129;-63
2023/08/05 11:41:08;;;;;;;4.85;2.70;;;21.00;99.90;;;;;;5077635;28;20050;-61
2023/08/05 11:43:35;;;;;;;5.97;2.88;;;21.00;99.90;;;;;;5093248;27;20158;-65
2023/08/05 11:46:01;;;;;;;4.43;3.05;;;21.00;99.90;;;;;;5089788;27;21814;-61
2023/08/05 11:48:28;;;;;;;5.90;3.47;;;20.90;99.90;;;;;;5097974;27;20133;-61
2023/08/05 11:50:59;;;;;;;5.18;3.63;;;20.90;99.90;;;;;;5076216;28;20108;-65
2023/08/05 11:53:28;;;;;;;4.78;3.78;;;20.80;99.90;;;;;;5107645;27;20056;-63
2023/08/05 11:55:55;;;;;;;8.35;3.85;;;20.60;99.90;;;;;;5108907;27;20039;-63
2023/08/05 11:58:23;;;;;;;7.30;3.90;;;20.60;99.90;;;;;;5107366;27;20039;-66
2023/08/05 12:00:57;;;;;;;5.65;3.90;;;20.50;99.90;;;;;;5099790;27;20110;-63
2023/08/05 12:03:29;;;;;;;8.05;3.72;;;20.60;99.90;;;;;;5093411;28;20120;-64
2023/08/05 12:06:00;;;;;;;7.68;4.60;;;20.40;99.90;;;;;;5082490;27;20035;-63
2023/08/05 12:08:38;;;;;;;6.47;3.90;;;20.40;99.90;;;;;;5115292;27;20120;-63
2023/08/05 12:11:03;;;;;;;7.20;4.50;;;20.40;99.90;;;;;;5083405;27;20150;-62
2023/08/05 12:13:33;;;;;;;4.57;3.60;;;20.40;99.90;;;;;;5088908;27;20180;-61
2023/08/05 12:15:58;;;;;;;5.45;3.63;;;20.30;99.90;;;;;;5094307;27;20051;-61
2023/08/05 12:18:24;;;;;;;5.10;3.75;;;20.10;99.90;;;;;;5092435;27;20046;-63
2023/08/05 12:20:50;;;;;;;4.95;3.92;;;20.10;99.90;;;;;;5095615;27;20054;-64
2023/08/05 12:23:16;;;;;;;6.68;5.13;;;20.10;99.90;;;;;;5112478;27;20036;-63
2023/08/05 12:25:42;;;;;;;5.95;4.00;;;20.10;99.90;;;;;;5099553;27;20062;-61
2023/08/05 12:28:07;;;;;;;7.10;4.57;;;20.10;99.90;;;;;;5112483;27;20097;-62
2023/08/05 12:30:36;;;;;;;7.57;4.55;;;20.00;99.90;;;;;;5118777;27;20035;-62
2023/08/05 12:33:05;;;;;;;7.60;4.55;;;20.10;99.90;;;;;;5117626;27;20095;-61
2023/08/05 12:35:33;;;;;;;5.90;4.38;;;20.10;99.90;;;;;;5093723;28;20055;-62
2023/08/05 12:38:02;;;;;;;6.93;4.20;;;20.10;99.90;;;;;;5109439;28;20103;-64
2023/08/05 12:40:27;;;;;;;5.35;4.20;;;20.10;99.90;;;;;;5096855;28;20047;-68
2023/08/05 12:42:53;;;;;;;6.20;4.18;;;20.00;99.90;;;;;;5097056;27;20035;-60
2023/08/05 12:45:19;;;;;;;5.30;4.05;;;19.80;99.90;;;;;;5116056;27;20031;-62